createdAt,value
2023-03-29T00:00:08.126Z,8.60
2023-03-29T00:02:38.812Z,7.70
2023-03-29T00:05:06.754Z,4.28
2023-03-29T00:07:33.664Z,8.27
2023-03-29T00:10:02.612Z,8.80
2023-03-29T00:12:29.507Z,6.30
2023-03-29T00:14:57.109Z,6.25
2023-03-29T00:17:23.962Z,7.20
2023-03-29T00:19:50.976Z,5.43
2023-03-29T00:22:17.727Z,6.70
2023-03-29T00:24:47.747Z,6.38
2023-03-29T00:27:17.967Z,6.25
2023-03-29T00:29:44.734Z,3.80
2023-03-29T00:32:11.732Z,3.97
2023-03-29T00:34:42.591Z,4.43
2023-03-29T00:37:09.951Z,5.90
2023-03-29T00:39:37.300Z,9.82
2023-03-29T00:42:04.308Z,8.00
2023-03-29T00:45:04.941Z,7.55
2023-03-29T00:47:45.504Z,7.32
2023-03-29T00:50:29.809Z,8.82
2023-03-29T00:53:13.641Z,7.90
2023-03-29T00:55:49.648Z,6.03
2023-03-29T00:58:26.547Z,6.63
2023-03-29T01:01:15.628Z,7.90
2023-03-29T01:03:54.306Z,8.82
2023-03-29T01:06:27.156Z,6.22
2023-03-29T01:09:01.314Z,5.22
2023-03-29T01:11:43.124Z,5.50
2023-03-29T01:14:33.857Z,5.63
2023-03-29T01:17:01.142Z,6.70
2023-03-29T01:19:39.059Z,5.53
2023-03-29T01:22:28.244Z,5.90
2023-03-29T01:25:13.227Z,6.38
2023-03-29T01:30:27.658Z,6.80
2023-03-29T01:33:12.736Z,6.25
2023-03-29T01:35:52.669Z,5.22
2023-03-29T01:38:30.181Z,6.47
2023-03-29T01:40:57.166Z,6.57
2023-03-29T01:43:51.502Z,6.20
2023-03-29T01:46:33.262Z,8.50
2023-03-29T01:49:27.175Z,6.03
2023-03-29T01:52:06.670Z,5.07
2023-03-29T01:54:40.603Z,6.75
2023-03-29T01:57:10.563Z,5.55
2023-03-29T01:59:43.901Z,11.07
2023-03-29T02:02:17.714Z,7.43
2023-03-29T02:04:54.221Z,4.32
2023-03-29T02:07:30.567Z,5.88
2023-03-29T02:09:59.044Z,5.03
2023-03-29T02:12:26.051Z,5.43
2023-03-29T02:14:54.023Z,7.88
2023-03-29T02:17:27.400Z,5.30
2023-03-29T02:20:24.884Z,5.50
2023-03-29T02:23:18.046Z,6.20
2023-03-29T02:25:46.643Z,7.95
2023-03-29T02:28:14.707Z,6.65
2023-03-29T02:31:05.446Z,8.05
2023-03-29T02:33:46.495Z,7.72
2023-03-29T02:36:24.801Z,6.10
2023-03-29T02:38:53.297Z,6.93
2023-03-29T02:41:23.791Z,6.18
2023-03-29T02:43:51.289Z,4.78
2023-03-29T02:46:20.621Z,6.22
2023-03-29T02:48:54.036Z,10.48
2023-03-29T02:54:03.103Z,10.70
2023-03-29T02:56:31.671Z,7.90
2023-03-29T02:58:58.489Z,7.93
2023-03-29T03:01:26.246Z,11.27
2023-03-29T03:03:53.696Z,7.38
2023-03-29T03:06:21.445Z,7.35
2023-03-29T03:08:50.786Z,6.93
2023-03-29T03:11:17.591Z,6.13
2023-03-29T03:13:46.227Z,11.20
2023-03-29T03:16:13.228Z,11.00
2023-03-29T03:18:41.019Z,8.55
2023-03-29T03:21:09.677Z,8.48
2023-03-29T03:23:37.490Z,6.45
2023-03-29T03:26:05.758Z,7.60
2023-03-29T03:28:34.273Z,6.43
2023-03-29T03:31:05.792Z,10.65
2023-03-29T03:33:51.172Z,6.20
2023-03-29T03:36:40.746Z,9.80
2023-03-29T03:39:08.233Z,6.20
2023-03-29T03:41:35.722Z,6.25
2023-03-29T03:44:03.116Z,8.45
2023-03-29T03:46:30.052Z,6.38
2023-03-29T03:48:59.374Z,5.32
2023-03-29T03:51:32.156Z,7.65
2023-03-29T03:53:59.761Z,6.65
2023-03-29T03:56:36.009Z,5.95
2023-03-29T03:59:17.737Z,4.90
2023-03-29T04:02:00.364Z,4.95
2023-03-29T04:04:28.018Z,6.70
2023-03-29T04:07:18.014Z,5.05
2023-03-29T04:10:09.081Z,7.63
2023-03-29T04:12:48.284Z,3.25
2023-03-29T04:15:17.880Z,4.57
2023-03-29T04:17:51.621Z,7.35
2023-03-29T04:20:18.815Z,7.32
2023-03-29T04:22:45.776Z,5.20
2023-03-29T04:25:12.922Z,5.38
2023-03-29T04:28:02.887Z,9.52
2023-03-29T04:30:40.036Z,5.45
2023-03-29T04:33:17.304Z,5.53
2023-03-29T04:35:48.884Z,8.20
2023-03-29T04:38:23.060Z,4.68
2023-03-29T04:40:51.326Z,6.00
2023-03-29T04:43:39.694Z,3.85
2023-03-29T04:46:26.895Z,5.72
2023-03-29T04:49:02.844Z,5.68
2023-03-29T04:51:35.054Z,5.78
2023-03-29T04:54:02.461Z,7.70
2023-03-29T04:56:31.960Z,6.63
2023-03-29T04:59:17.161Z,5.72
2023-03-29T05:01:45.767Z,6.13
2023-03-29T05:04:14.031Z,8.32
2023-03-29T05:06:52.093Z,4.90
2023-03-29T05:09:18.971Z,6.60
2023-03-29T05:11:50.717Z,8.45
2023-03-29T05:14:19.615Z,9.38
2023-03-29T05:16:46.450Z,7.45
2023-03-29T05:19:13.380Z,6.13
2023-03-29T05:21:46.227Z,6.43
2023-03-29T05:24:17.822Z,6.72
2023-03-29T05:27:05.811Z,5.63
2023-03-29T05:29:35.697Z,5.32
2023-03-29T05:32:25.721Z,8.40
2023-03-29T05:34:52.954Z,8.63
2023-03-29T05:37:20.818Z,9.15
2023-03-29T05:40:05.812Z,6.82
2023-03-29T05:42:40.205Z,6.82
2023-03-29T05:45:10.632Z,8.63
2023-03-29T05:47:37.749Z,7.13
2023-03-29T05:50:09.344Z,5.10
2023-03-29T05:52:37.560Z,10.65
2023-03-29T05:55:05.664Z,8.20
2023-03-29T05:57:32.511Z,8.50
2023-03-29T05:59:59.568Z,7.55
2023-03-29T06:02:28.500Z,8.13
2023-03-29T06:04:55.596Z,8.70
2023-03-29T06:07:23.525Z,4.88
2023-03-29T06:10:23.604Z,6.15
2023-03-29T06:12:56.698Z,7.50
2023-03-29T06:15:25.630Z,6.75
2023-03-29T06:17:59.974Z,6.07
2023-03-29T06:20:29.383Z,7.50
2023-03-29T06:23:02.643Z,6.57
2023-03-29T06:25:29.980Z,5.93
2023-03-29T06:27:58.086Z,8.25
2023-03-29T06:30:24.992Z,6.57
2023-03-29T06:32:54.682Z,7.35
2023-03-29T06:35:47.443Z,7.95
2023-03-29T06:38:21.218Z,8.07
2023-03-29T06:41:08.261Z,11.18
2023-03-29T06:46:22.355Z,6.93
2023-03-29T06:48:57.544Z,10.02
2023-03-29T06:51:32.012Z,7.30
2023-03-29T06:53:59.013Z,7.78
2023-03-29T06:56:26.197Z,6.53
2023-03-29T06:58:59.647Z,6.32
2023-03-29T07:01:49.871Z,7.30
2023-03-29T07:04:24.808Z,8.23
2023-03-29T07:07:20.036Z,8.30
2023-03-29T07:09:53.885Z,7.35
2023-03-29T07:12:24.151Z,5.85
2023-03-29T07:14:54.326Z,8.85
2023-03-29T07:17:22.798Z,8.00
2023-03-29T07:19:49.675Z,8.35
2023-03-29T07:22:44.620Z,9.95
2023-03-29T07:25:12.353Z,9.43
2023-03-29T07:27:42.223Z,8.38
2023-03-29T07:30:13.643Z,8.63
2023-03-29T07:32:44.447Z,6.85
2023-03-29T07:35:23.344Z,9.05
2023-03-29T07:37:50.720Z,8.40
2023-03-29T07:40:23.213Z,5.28
2023-03-29T07:43:11.034Z,7.82
2023-03-29T07:45:40.691Z,8.68
2023-03-29T07:48:11.809Z,11.48
2023-03-29T07:50:59.142Z,8.27
2023-03-29T07:53:31.297Z,7.88
2023-03-29T07:56:01.755Z,5.85
2023-03-29T07:58:40.492Z,8.65
2023-03-29T08:01:08.542Z,6.80
2023-03-29T08:03:55.090Z,10.75
2023-03-29T08:06:30.877Z,9.73
2023-03-29T08:09:00.124Z,9.10
2023-03-29T08:11:28.395Z,9.60
2023-03-29T08:14:01.589Z,8.57
2023-03-29T08:16:57.785Z,8.93
2023-03-29T08:19:26.223Z,6.72
2023-03-29T08:22:13.278Z,5.95
2023-03-29T08:25:07.423Z,7.40
2023-03-29T08:27:39.828Z,10.45
2023-03-29T08:30:10.625Z,6.40
2023-03-29T08:32:39.418Z,7.20
2023-03-29T08:35:09.701Z,7.15
2023-03-29T08:37:43.056Z,8.68
2023-03-29T08:40:22.362Z,11.27
2023-03-29T08:43:43.486Z,13.32
2023-03-29T08:46:35.296Z,9.13
2023-03-29T08:49:26.458Z,9.20
2023-03-29T08:52:01.250Z,12.18
2023-03-29T08:54:47.334Z,9.70
2023-03-29T08:57:48.699Z,8.65
2023-03-29T09:00:41.029Z,11.60
2023-03-29T09:03:34.407Z,13.57
2023-03-29T09:06:12.910Z,11.32
2023-03-29T09:08:46.901Z,12.05
2023-03-29T09:11:56.943Z,14.98
2023-03-29T09:14:53.337Z,12.65
2023-03-29T09:17:45.437Z,12.73
2023-03-29T09:20:47.606Z,11.15
2023-03-29T09:23:35.893Z,10.30
2023-03-29T09:26:39.327Z,11.95
2023-03-29T09:29:47.691Z,11.23
2023-03-29T09:32:28.978Z,10.27
2023-03-29T09:35:18.583Z,13.48
2023-03-29T09:37:50.459Z,10.98
2023-03-29T09:40:43.392Z,12.55
2023-03-29T09:43:32.940Z,8.55
2023-03-29T09:46:19.925Z,13.82
2023-03-29T09:48:50.098Z,11.63
2023-03-29T09:51:22.688Z,13.45
2023-03-29T09:53:49.919Z,9.27
2023-03-29T09:56:30.085Z,15.98
2023-03-29T09:59:22.968Z,11.95
2023-03-29T10:01:49.996Z,9.90
2023-03-29T10:04:17.547Z,14.75
2023-03-29T10:06:54.989Z,11.68
2023-03-29T10:09:24.739Z,11.15
2023-03-29T10:12:05.032Z,14.10
2023-03-29T10:14:45.987Z,11.43
2023-03-29T10:17:24.475Z,15.32
2023-03-29T10:20:08.121Z,12.02
2023-03-29T10:22:38.559Z,14.35
2023-03-29T10:25:13.804Z,13.52
2023-03-29T10:27:44.216Z,9.10
2023-03-29T10:30:22.572Z,13.82
2023-03-29T10:32:58.885Z,18.40
2023-03-29T10:35:38.264Z,11.05
2023-03-29T10:38:13.350Z,10.70
2023-03-29T10:40:47.359Z,15.10
2023-03-29T10:43:17.342Z,19.02
2023-03-29T10:45:48.754Z,12.68
2023-03-29T10:48:17.863Z,15.25
2023-03-29T10:50:52.971Z,13.65
2023-03-29T10:53:31.738Z,12.68
2023-03-29T10:56:31.814Z,15.75
2023-03-29T10:59:10.625Z,16.95
2023-03-29T11:02:14.640Z,10.82
2023-03-29T11:05:19.255Z,14.57
2023-03-29T11:08:22.684Z,14.60
2023-03-29T11:11:44.435Z,11.20
2023-03-29T11:14:33.636Z,13.52
2023-03-29T11:17:50.853Z,11.77
2023-03-29T11:20:33.106Z,13.88
2023-03-29T11:23:35.978Z,11.80
2023-03-29T11:26:18.549Z,12.25
2023-03-29T11:28:53.093Z,12.80
2023-03-29T11:31:49.608Z,14.30
2023-03-29T11:34:55.421Z,12.82
2023-03-29T11:37:43.174Z,12.52
2023-03-29T11:40:39.196Z,19.05
2023-03-29T11:43:24.467Z,11.15
2023-03-29T11:46:03.588Z,9.80
2023-03-29T11:48:46.122Z,11.77
2023-03-29T11:51:24.179Z,11.00
2023-03-29T11:54:14.173Z,12.23
2023-03-29T11:56:49.403Z,14.52
2023-03-29T11:59:34.646Z,13.93
2023-03-29T12:02:16.293Z,11.50
2023-03-29T12:04:51.818Z,12.98
2023-03-29T12:07:32.234Z,12.85
2023-03-29T12:10:26.803Z,11.27
2023-03-29T12:13:15.128Z,15.75
2023-03-29T12:15:51.918Z,11.77
2023-03-29T12:18:30.342Z,9.10
2023-03-29T12:23:32.729Z,11.63
2023-03-29T12:26:50.054Z,12.20
2023-03-29T12:29:45.541Z,15.52
2023-03-29T12:32:21.982Z,12.10
2023-03-29T12:35:23.914Z,10.57
2023-03-29T12:38:24.264Z,11.70
2023-03-29T12:41:23.464Z,10.23
2023-03-29T12:44:16.159Z,8.98
2023-03-29T12:46:59.192Z,13.82
2023-03-29T12:49:34.203Z,11.40
2023-03-29T12:52:12.491Z,16.15
2023-03-29T12:54:39.354Z,16.67
2023-03-29T12:57:39.967Z,14.80
2023-03-29T13:00:22.529Z,9.88
2023-03-29T13:03:19.896Z,10.48
2023-03-29T13:05:47.950Z,10.05
2023-03-29T13:08:42.633Z,8.75
2023-03-29T13:11:37.523Z,21.15
2023-03-29T13:14:16.786Z,10.13
2023-03-29T13:16:43.788Z,12.20
2023-03-29T13:19:39.131Z,8.10
2023-03-29T13:22:40.737Z,12.82
2023-03-29T13:25:57.120Z,9.40
2023-03-29T13:29:26.733Z,9.13
2023-03-29T13:32:22.025Z,10.50
2023-03-29T13:35:38.485Z,7.53
2023-03-29T13:38:28.740Z,9.20
2023-03-29T13:41:07.383Z,9.38
2023-03-29T13:43:46.014Z,6.40
2023-03-29T13:46:34.975Z,7.45
2023-03-29T13:49:15.418Z,10.65
2023-03-29T13:52:02.918Z,5.30
2023-03-29T13:54:40.691Z,8.00
2023-03-29T13:57:20.274Z,5.40
2023-03-29T14:00:11.922Z,5.97
2023-03-29T14:02:51.874Z,8.10
2023-03-29T14:05:30.857Z,4.75
2023-03-29T14:08:08.488Z,10.40
2023-03-29T14:10:42.090Z,5.97
2023-03-29T14:13:19.353Z,7.22
2023-03-29T14:15:51.650Z,5.28
2023-03-29T14:18:23.708Z,7.97
2023-03-29T14:23:32.010Z,10.35
2023-03-29T14:26:21.216Z,6.45
2023-03-29T14:28:56.591Z,5.75
2023-03-29T14:31:36.914Z,5.75
2023-03-29T14:34:07.886Z,6.97
2023-03-29T14:36:36.445Z,7.40
2023-03-29T14:39:17.962Z,9.52
2023-03-29T14:41:54.824Z,9.82
2023-03-29T14:44:28.625Z,9.25
2023-03-29T14:46:56.697Z,7.68
2023-03-29T14:49:24.596Z,6.72
2023-03-29T14:51:54.843Z,8.02
2023-03-29T14:54:28.705Z,6.22
2023-03-29T14:56:56.328Z,8.18
2023-03-29T14:59:27.820Z,7.80
2023-03-29T15:01:55.008Z,12.80
2023-03-29T15:04:22.030Z,10.57
2023-03-29T15:06:50.776Z,9.18
2023-03-29T15:09:32.624Z,9.95
2023-03-29T15:12:19.668Z,10.78
2023-03-29T15:14:52.042Z,10.65
2023-03-29T15:17:47.540Z,10.13
2023-03-29T15:20:32.599Z,8.70
2023-03-29T15:23:24.025Z,8.48
2023-03-29T15:25:58.499Z,11.18
2023-03-29T15:28:33.699Z,8.55
2023-03-29T15:31:14.313Z,9.65
2023-03-29T15:33:42.294Z,7.40
2023-03-29T15:36:12.795Z,8.25
2023-03-29T15:38:45.168Z,9.05
2023-03-29T15:41:14.534Z,7.78
2023-03-29T15:43:42.540Z,7.30
2023-03-29T15:46:13.307Z,10.63
2023-03-29T15:48:40.826Z,5.55
2023-03-29T15:51:10.810Z,8.38
2023-03-29T15:53:38.025Z,5.88
2023-03-29T15:56:08.070Z,5.72
2023-03-29T15:58:37.030Z,6.72
2023-03-29T16:01:33.566Z,7.65
2023-03-29T16:04:12.314Z,3.78
2023-03-29T16:06:39.144Z,7.20
2023-03-29T16:09:07.191Z,7.35
2023-03-29T16:11:35.351Z,5.78
2023-03-29T16:14:02.280Z,5.30
2023-03-29T16:16:29.187Z,5.00
2023-03-29T16:18:56.400Z,6.05
2023-03-29T16:21:24.420Z,6.95
2023-03-29T16:23:51.478Z,6.40
2023-03-29T16:26:18.516Z,6.97
2023-03-29T16:28:45.501Z,8.35
2023-03-29T16:31:14.196Z,6.55
2023-03-29T16:33:41.988Z,5.53
2023-03-29T16:36:11.076Z,8.15
2023-03-29T16:38:38.402Z,6.03
2023-03-29T16:41:05.844Z,5.82
2023-03-29T16:43:32.808Z,6.43
2023-03-29T16:45:59.952Z,6.53
2023-03-29T16:48:27.137Z,8.05
2023-03-29T16:50:54.090Z,5.68
2023-03-29T16:53:21.753Z,6.53
2023-03-29T16:55:49.346Z,5.70
2023-03-29T16:58:16.415Z,8.05
2023-03-29T17:00:46.351Z,9.60
2023-03-29T17:03:14.270Z,9.93
2023-03-29T17:05:50.805Z,7.15
2023-03-29T17:08:22.109Z,7.45
2023-03-29T17:10:55.402Z,5.30
2023-03-29T17:13:24.069Z,7.70
2023-03-29T17:15:53.806Z,7.25
2023-03-29T17:18:22.812Z,8.32
2023-03-29T17:20:57.905Z,7.57
2023-03-29T17:23:25.796Z,10.27
2023-03-29T17:25:55.895Z,8.77
2023-03-29T17:28:23.836Z,10.60
2023-03-29T17:30:51.362Z,20.50
2023-03-29T17:33:22.467Z,28.63
2023-03-29T17:35:49.842Z,22.80
2023-03-29T17:38:16.858Z,16.27
2023-03-29T17:40:44.210Z,7.60
2023-03-29T17:43:11.139Z,7.20
2023-03-29T17:45:38.214Z,8.93
2023-03-29T17:48:06.614Z,7.32
2023-03-29T17:50:34.355Z,6.47
2023-03-29T17:53:01.236Z,8.68
2023-03-29T17:55:28.363Z,10.60
2023-03-29T17:57:55.361Z,9.45
2023-03-29T18:00:22.437Z,8.48
2023-03-29T18:02:49.400Z,8.02
2023-03-29T18:05:16.477Z,10.65
2023-03-29T18:07:43.415Z,7.22
2023-03-29T18:10:10.931Z,10.32
2023-03-29T18:12:38.066Z,7.00
2023-03-29T18:15:06.356Z,9.50
2023-03-29T18:17:35.677Z,7.28
2023-03-29T18:20:09.080Z,6.45
2023-03-29T18:22:35.938Z,7.25
2023-03-29T18:25:02.994Z,7.53
2023-03-29T18:27:29.897Z,8.30
2023-03-29T18:29:58.673Z,8.00
2023-03-29T18:32:25.643Z,8.68
2023-03-29T18:34:52.564Z,6.50
2023-03-29T18:37:19.497Z,7.20
2023-03-29T18:39:47.955Z,9.90
2023-03-29T18:42:15.007Z,10.70
2023-03-29T18:44:42.290Z,9.98
2023-03-29T18:47:09.483Z,10.07
2023-03-29T18:49:36.900Z,12.27
2023-03-29T18:52:04.887Z,9.40
2023-03-29T18:54:32.044Z,8.48
2023-03-29T18:57:00.462Z,16.75
2023-03-29T18:59:27.502Z,12.68
2023-03-29T19:01:54.682Z,9.18
2023-03-29T19:04:22.339Z,8.88
2023-03-29T19:06:50.621Z,11.57
2023-03-29T19:09:17.666Z,10.38
2023-03-29T19:11:47.804Z,7.88
2023-03-29T19:14:15.497Z,13.40
2023-03-29T19:16:42.894Z,8.27
2023-03-29T19:19:10.745Z,9.60
2023-03-29T19:21:38.540Z,12.25
2023-03-29T19:24:07.802Z,9.65
2023-03-29T19:26:34.907Z,13.88
2023-03-29T19:29:02.056Z,10.07
2023-03-29T19:31:29.016Z,7.43
2023-03-29T19:33:56.012Z,10.07
2023-03-29T19:36:23.087Z,10.13
2023-03-29T19:38:50.115Z,10.40
2023-03-29T19:41:17.945Z,8.32
2023-03-29T19:43:44.928Z,9.45
2023-03-29T19:46:13.530Z,11.20
2023-03-29T19:48:40.558Z,8.57
2023-03-29T19:51:08.871Z,11.18
2023-03-29T19:53:38.599Z,10.30
2023-03-29T19:56:10.749Z,10.50
2023-03-29T19:58:37.764Z,9.30
2023-03-29T20:01:04.891Z,9.00
2023-03-29T20:03:34.208Z,7.63
2023-03-29T20:06:01.582Z,7.75
2023-03-29T20:08:28.597Z,13.15
2023-03-29T20:11:07.900Z,8.82
2023-03-29T20:13:38.887Z,8.48
2023-03-29T20:16:15.933Z,8.23
2023-03-29T20:18:47.411Z,8.85
2023-03-29T20:21:16.817Z,8.95
2023-03-29T20:23:44.596Z,12.00
2023-03-29T20:26:11.566Z,11.15
2023-03-29T20:28:38.549Z,9.60
2023-03-29T20:31:10.795Z,7.82
2023-03-29T20:33:39.104Z,13.18
2023-03-29T20:36:06.729Z,7.90
2023-03-29T20:38:35.031Z,13.55
2023-03-29T20:41:04.170Z,9.32
2023-03-29T20:43:37.533Z,17.08
2023-03-29T20:46:14.480Z,11.80
2023-03-29T20:48:54.338Z,8.60
2023-03-29T20:51:28.254Z,9.50
2023-03-29T20:54:02.224Z,11.90
2023-03-29T20:56:39.665Z,9.43
2023-03-29T20:59:10.642Z,9.57
2023-03-29T21:01:40.777Z,11.88
2023-03-29T21:04:09.320Z,11.05
2023-03-29T21:06:57.206Z,13.30
2023-03-29T21:09:25.518Z,10.32
2023-03-29T21:11:52.969Z,9.32
2023-03-29T21:14:23.194Z,10.95
2023-03-29T21:16:50.376Z,10.90
2023-03-29T21:19:17.481Z,8.98
2023-03-29T21:21:45.153Z,8.23
2023-03-29T21:24:13.832Z,11.23
2023-03-29T21:26:41.904Z,11.95
2023-03-29T21:29:09.040Z,11.88
2023-03-29T21:31:37.263Z,9.02
2023-03-29T21:34:04.492Z,11.40
2023-03-29T21:36:31.628Z,8.98
2023-03-29T21:38:59.006Z,9.82
2023-03-29T21:41:27.151Z,11.38
2023-03-29T21:43:54.070Z,11.07
2023-03-29T21:46:21.474Z,7.30
2023-03-29T21:48:48.556Z,12.23
2023-03-29T21:51:16.007Z,9.30
2023-03-29T21:53:43.148Z,10.50
2023-03-29T21:56:12.273Z,11.68
2023-03-29T21:58:39.347Z,9.98
2023-03-29T22:01:09.871Z,8.05
2023-03-29T22:03:38.176Z,8.55
2023-03-29T22:06:09.534Z,9.48
2023-03-29T22:08:39.047Z,8.25
2023-03-29T22:11:10.997Z,12.40
2023-03-29T22:16:06.112Z,11.23
2023-03-29T22:18:43.307Z,8.38
2023-03-29T22:21:17.531Z,10.07
2023-03-29T22:23:48.130Z,10.23
2023-03-29T22:26:17.958Z,10.18
2023-03-29T22:28:45.410Z,8.60
2023-03-29T22:31:16.556Z,11.75
2023-03-29T22:33:44.435Z,8.80
2023-03-29T22:36:19.939Z,9.85
2023-03-29T22:38:48.341Z,7.20
2023-03-29T22:41:17.247Z,8.38
2023-03-29T22:43:45.052Z,12.02
2023-03-29T22:46:14.196Z,9.50
2023-03-29T22:48:41.357Z,11.00
2023-03-29T22:51:08.706Z,7.10
2023-03-29T22:53:36.073Z,8.27
2023-03-29T22:56:04.620Z,8.40
2023-03-29T22:58:31.793Z,8.27
2023-03-29T23:00:59.354Z,6.20
2023-03-29T23:03:26.656Z,7.70
2023-03-29T23:05:57.992Z,6.30
2023-03-29T23:08:26.311Z,9.85
2023-03-29T23:10:53.326Z,7.63
2023-03-29T23:13:24.296Z,9.35
2023-03-29T23:15:54.633Z,6.15
2023-03-29T23:18:23.674Z,7.78
2023-03-29T23:20:54.776Z,9.18
2023-03-29T23:23:23.492Z,12.05
2023-03-29T23:25:53.074Z,8.27
2023-03-29T23:28:27.615Z,7.40
2023-03-29T23:31:00.756Z,7.22
2023-03-29T23:33:33.328Z,9.13
2023-03-29T23:36:05.705Z,5.72
2023-03-29T23:38:35.776Z,6.35
2023-03-29T23:41:06.327Z,7.65
2023-03-29T23:43:37.393Z,5.35
2023-03-29T23:46:11.654Z,7.03
2023-03-29T23:48:39.302Z,4.65
2023-03-29T23:51:08.193Z,5.70
2023-03-29T23:53:35.093Z,7.68
2023-03-29T23:56:05.050Z,5.95
2023-03-29T23:58:36.977Z,7.22
